Time,TemperatureF,DewpointF,PressureIn,WindDirection,WindDirectionDegrees,WindSpeedMPH,WindSpeedGustMPH,Humidity,HourlyPrecipIn,Conditions,Clouds,dailyrainin,SoftwareType,DateUTC
2013-03-08 00:01:00,54.1,41.0,28.52,East,90,11.0,11.0,61,0.00,,,0.00,meteohub,2013-03-08 06:01:00,
2013-03-08 00:06:00,54.3,41.5,28.52,East,90,6.0,11.0,62,0.00,,,0.00,meteohub,2013-03-08 06:06:00,
2013-03-08 00:11:00,54.5,41.7,28.51,East,90,7.0,11.0,62,0.00,,,0.00,meteohub,2013-03-08 06:11:00,
2013-03-08 00:16:00,54.5,41.7,28.52,SE,135,6.0,11.0,62,0.00,,,0.00,meteohub,2013-03-08 06:16:00,
2013-03-08 00:21:00,54.5,42.1,28.52,East,90,10.0,11.0,63,0.00,,,0.00,meteohub,2013-03-08 06:21:00,
2013-03-08 00:26:00,54.5,42.1,28.51,SE,135,9.0,10.0,63,0.00,,,0.00,meteohub,2013-03-08 06:26:00,
2013-03-08 00:31:00,54.5,42.6,28.52,East,90,10.0,10.0,64,0.00,,,0.00,meteohub,2013-03-08 06:31:00,
2013-03-08 00:36:00,54.3,42.1,28.51,East,90,6.0,11.0,63,0.00,,,0.00,meteohub,2013-03-08 06:36:00,
2013-03-08 00:42:00,54.1,42.3,28.51,SE,135,10.0,11.0,64,0.00,,,0.00,meteohub,2013-03-08 06:42:00,
2013-03-08 00:47:00,54.1,42.3,28.52,East,90,5.0,11.0,64,0.00,,,0.00,meteohub,2013-03-08 06:47:00,
2013-03-08 00:52:00,53.8,42.3,28.52,East,90,6.0,10.0,65,0.00,,,0.00,meteohub,2013-03-08 06:52:00,
2013-03-08 00:57:00,53.8,42.3,28.52,SE,135,6.0,10.0,65,0.00,,,0.00,meteohub,2013-03-08 06:57:00,
2013-03-08 01:02:00,53.6,42.4,28.52,SE,135,8.0,8.0,66,0.00,,,0.00,meteohub,2013-03-08 07:02:00,
2013-03-08 01:07:00,53.4,42.3,28.52,East,90,6.0,8.0,66,0.00,,,0.00,meteohub,2013-03-08 07:07:00,
2013-03-08 01:12:00,53.4,42.8,28.52,SE,135,7.0,8.0,67,0.00,,,0.00,meteohub,2013-03-08 07:12:00,
2013-03-08 01:17:00,53.6,43.0,28.52,South,180,7.0,9.0,67,0.00,,,0.00,meteohub,2013-03-08 07:17:00,
2013-03-08 01:22:00,53.6,43.0,28.52,East,90,8.0,9.0,67,0.00,,,0.00,meteohub,2013-03-08 07:22:00,
2013-03-08 01:27:00,54.0,43.3,28.52,SE,135,8.0,9.0,67,0.00,,,0.00,meteohub,2013-03-08 07:27:00,
2013-03-08 01:32:00,54.1,43.0,28.52,SE,135,11.0,11.0,66,0.00,,,0.00,meteohub,2013-03-08 07:32:00,
2013-03-08 01:37:00,54.5,43.3,28.53,SSW,203,8.0,11.0,66,0.00,,,0.00,meteohub,2013-03-08 07:37:00,
2013-03-08 01:42:00,54.5,43.3,28.52,SE,135,8.0,14.0,66,0.00,,,0.00,meteohub,2013-03-08 07:42:00,
2013-03-08 01:47:00,54.5,43.3,28.52,East,90,10.0,14.0,66,0.00,,,0.00,meteohub,2013-03-08 07:47:00,
2013-03-08 01:52:00,54.5,43.3,28.52,SE,135,9.0,14.0,66,0.00,,,0.00,meteohub,2013-03-08 07:52:00,
2013-03-08 01:57:00,54.5,43.3,28.52,East,90,11.0,12.0,66,0.00,,,0.00,meteohub,2013-03-08 07:57:00,
2013-03-08 02:02:00,54.3,43.2,28.52,East,90,8.0,12.0,66,0.00,,,0.00,meteohub,2013-03-08 08:02:00,
2013-03-08 02:07:00,54.7,43.5,28.51,SE,135,11.0,12.0,66,0.00,,,0.00,meteohub,2013-03-08 08:07:00,
2013-03-08 02:12:00,54.5,43.3,28.52,SE,135,12.0,12.0,66,0.00,,,0.00,meteohub,2013-03-08 08:12:00,
2013-03-08 02:17:00,54.7,43.5,28.51,East,90,12.0,13.0,66,0.00,,,0.00,meteohub,2013-03-08 08:17:00,
2013-03-08 02:22:00,54.3,43.5,28.51,East,90,10.0,13.0,67,0.00,,,0.00,meteohub,2013-03-08 08:22:00,
2013-03-08 02:27:00,54.3,43.5,28.51,SE,135,8.0,13.0,67,0.00,,,0.00,meteohub,2013-03-08 08:27:00,
2013-03-08 02:32:00,54.0,43.7,28.51,East,90,8.0,12.0,68,0.00,,,0.00,meteohub,2013-03-08 08:32:00,
2013-03-08 02:37:00,53.8,43.5,28.51,East,90,10.0,12.0,68,0.00,,,0.00,meteohub,2013-03-08 08:37:00,
2013-03-08 02:42:00,53.8,43.5,28.51,East,90,11.0,12.0,68,0.00,,,0.00,meteohub,2013-03-08 08:42:00,
2013-03-08 02:47:00,53.8,43.9,28.51,SE,135,13.0,13.0,69,0.00,,,0.00,meteohub,2013-03-08 08:47:00,
2013-03-08 02:52:00,53.8,43.9,28.51,East,90,10.0,13.0,69,0.00,,,0.00,meteohub,2013-03-08 08:52:00,
2013-03-08 02:57:00,54.1,44.2,28.51,SE,135,14.0,15.0,69,0.00,,,0.00,meteohub,2013-03-08 08:57:00,
2013-03-08 03:02:00,54.1,44.2,28.50,East,90,9.0,15.0,69,0.00,,,0.00,meteohub,2013-03-08 09:02:00,
2013-03-08 03:07:00,54.0,44.4,28.50,ESE,113,11.0,15.0,70,0.00,,,0.00,meteohub,2013-03-08 09:07:00,
2013-03-08 03:12:00,53.8,44.6,28.50,East,90,11.0,14.0,71,0.00,,,0.00,meteohub,2013-03-08 09:12:00,
2013-03-08 03:17:00,53.6,44.4,28.50,East,90,8.0,12.0,71,0.00,,,0.00,meteohub,2013-03-08 09:17:00,
2013-03-08 03:22:00,53.4,44.6,28.50,SE,135,11.0,12.0,72,0.00,,,0.00,meteohub,2013-03-08 09:22:00,
2013-03-08 03:27:00,53.2,44.4,28.50,SE,135,10.0,16.0,72,0.00,,,0.00,meteohub,2013-03-08 09:27:00,
2013-03-08 03:32:00,53.4,44.6,28.50,East,90,7.0,16.0,72,0.00,,,0.00,meteohub,2013-03-08 09:32:00,
2013-03-08 03:37:00,53.2,44.8,28.50,East,90,11.0,16.0,73,0.00,,,0.00,meteohub,2013-03-08 09:37:00,
2013-03-08 03:42:00,53.2,45.1,28.49,East,90,9.0,12.0,74,0.00,,,0.00,meteohub,2013-03-08 09:42:00,
2013-03-08 03:47:00,53.4,45.3,28.49,East,90,13.0,13.0,74,0.00,,,0.00,meteohub,2013-03-08 09:47:00,
2013-03-08 03:52:00,53.2,45.1,28.49,East,90,10.0,13.0,74,0.00,,,0.00,meteohub,2013-03-08 09:52:00,
2013-03-08 03:57:00,53.1,45.3,28.49,SE,135,11.0,15.0,75,0.00,,,0.00,meteohub,2013-03-08 09:57:00,
2013-03-08 04:02:00,53.2,45.9,28.48,East,90,12.0,15.0,76,0.00,,,0.00,meteohub,2013-03-08 10:02:00,
2013-03-08 04:07:00,53.1,45.7,28.49,ESE,113,8.0,15.0,76,0.00,,,0.00,meteohub,2013-03-08 10:07:00,
2013-03-08 04:12:00,52.9,45.5,28.48,East,90,8.0,15.0,76,0.00,,,0.00,meteohub,2013-03-08 10:12:00,
2013-03-08 04:17:00,52.9,45.9,28.49,East,90,9.0,15.0,77,0.00,,,0.00,meteohub,2013-03-08 10:17:00,
2013-03-08 04:22:00,52.9,45.9,28.49,SE,135,9.0,12.0,77,0.00,,,0.00,meteohub,2013-03-08 10:22:00,
2013-03-08 04:27:00,52.9,45.9,28.49,East,90,8.0,12.0,77,0.00,,,0.00,meteohub,2013-03-08 10:27:00,
2013-03-08 04:32:00,52.7,45.7,28.50,NE,45,8.0,13.0,77,0.00,,,0.00,meteohub,2013-03-08 10:32:00,
2013-03-08 04:37:00,52.7,46.0,28.50,East,90,10.0,13.0,78,0.00,,,0.00,meteohub,2013-03-08 10:37:00,
2013-03-08 04:42:00,52.9,46.6,28.50,East,90,7.0,11.0,79,0.00,,,0.00,meteohub,2013-03-08 10:42:00,
2013-03-08 04:47:00,52.9,46.6,28.50,SE,135,12.0,12.0,79,0.00,,,0.00,meteohub,2013-03-08 10:47:00,
2013-03-08 04:52:00,52.7,46.8,28.50,East,90,11.0,12.0,80,0.00,,,0.00,meteohub,2013-03-08 10:52:00,
2013-03-08 04:57:00,52.9,46.9,28.51,East,90,11.0,12.0,80,0.00,,,0.00,meteohub,2013-03-08 10:57:00,
2013-03-08 05:02:00,52.7,46.8,28.51,East,90,6.0,12.0,80,0.00,,,0.00,meteohub,2013-03-08 11:02:00,
2013-03-08 05:07:00,52.5,46.6,28.51,SE,135,7.0,11.0,80,0.00,,,0.00,meteohub,2013-03-08 11:07:00,
2013-03-08 05:12:00,52.9,47.3,28.51,East,90,8.0,11.0,81,0.00,,,0.00,meteohub,2013-03-08 11:12:00,
2013-03-08 05:17:00,52.9,47.5,28.51,East,90,8.0,11.0,82,0.00,,,0.00,meteohub,2013-03-08 11:17:00,
2013-03-08 05:22:00,53.1,47.7,28.51,SSE,158,10.0,11.0,82,0.00,,,0.00,meteohub,2013-03-08 11:22:00,
2013-03-08 05:27:00,53.1,47.7,28.51,East,90,7.0,11.0,82,0.00,,,0.00,meteohub,2013-03-08 11:27:00,
2013-03-08 05:32:00,53.1,48.0,28.51,East,90,8.0,11.0,83,0.00,,,0.00,meteohub,2013-03-08 11:32:00,
2013-03-08 05:37:00,52.7,47.7,28.50,East,90,8.0,11.0,83,0.00,,,0.00,meteohub,2013-03-08 11:37:00,
2013-03-08 05:42:00,52.5,47.5,28.50,East,90,10.0,11.0,83,0.00,,,0.00,meteohub,2013-03-08 11:42:00,
2013-03-08 05:47:00,52.3,47.3,28.51,East,90,8.0,11.0,83,0.00,,,0.00,meteohub,2013-03-08 11:47:00,
2013-03-08 05:52:00,52.2,47.5,28.50,East,90,7.0,11.0,84,0.00,,,0.00,meteohub,2013-03-08 11:52:00,
2013-03-08 05:57:00,52.0,47.3,28.51,East,90,8.0,11.0,84,0.00,,,0.00,meteohub,2013-03-08 11:57:00,
2013-03-08 06:02:00,51.6,47.3,28.51,East,90,7.0,11.0,85,0.00,,,0.00,meteohub,2013-03-08 12:02:00,
2013-03-08 06:07:00,51.4,47.1,28.51,SE,135,7.0,11.0,85,0.00,,,0.00,meteohub,2013-03-08 12:07:00,
2013-03-08 06:12:00,51.3,47.5,28.51,SE,135,8.0,9.0,87,0.00,,,0.00,meteohub,2013-03-08 12:12:00,
2013-03-08 06:17:00,51.4,47.7,28.51,ESE,113,7.0,10.0,87,0.00,,,0.00,meteohub,2013-03-08 12:17:00,
2013-03-08 06:22:00,51.8,48.4,28.51,East,90,8.0,10.0,88,0.00,,,0.00,meteohub,2013-03-08 12:22:00,
2013-03-08 06:27:00,52.0,48.6,28.52,East,90,7.0,10.0,88,0.00,,,0.00,meteohub,2013-03-08 12:27:00,
2013-03-08 06:32:00,52.2,48.7,28.51,East,90,8.0,10.0,88,0.00,,,0.00,meteohub,2013-03-08 12:32:00,
2013-03-08 06:37:00,52.0,48.6,28.52,SE,135,8.0,9.0,88,0.00,,,0.00,meteohub,2013-03-08 12:37:00,
2013-03-08 06:42:00,52.3,48.9,28.51,SE,135,8.0,9.0,88,0.00,,,0.00,meteohub,2013-03-08 12:42:00,
2013-03-08 06:47:00,52.3,49.3,28.51,SE,135,5.0,9.0,89,0.00,,,0.00,meteohub,2013-03-08 12:47:00,
2013-03-08 06:52:00,52.3,49.3,28.51,East,90,8.0,10.0,89,0.00,,,0.00,meteohub,2013-03-08 12:52:00,
2013-03-08 06:57:00,52.5,49.5,28.52,East,90,5.0,10.0,89,0.00,,,0.00,meteohub,2013-03-08 12:57:00,
2013-03-08 07:02:00,52.9,49.6,28.51,East,90,13.0,13.0,89,0.00,,,0.00,meteohub,2013-03-08 13:02:00,
2013-03-08 07:07:00,52.9,49.6,28.51,East,90,11.0,13.0,89,0.00,,,0.00,meteohub,2013-03-08 13:07:00,
2013-03-08 07:12:00,53.1,49.6,28.52,SE,135,10.0,13.0,88,0.00,,,0.00,meteohub,2013-03-08 13:12:00,
2013-03-08 07:17:00,53.2,49.8,28.52,ESE,113,13.0,13.0,88,0.00,,,0.00,meteohub,2013-03-08 13:17:00,
2013-03-08 07:22:00,53.4,49.6,28.52,East,90,10.0,13.0,87,0.00,,,0.00,meteohub,2013-03-08 13:22:00,
2013-03-08 07:27:00,53.6,49.8,28.52,SE,135,11.0,16.0,87,0.00,,,0.00,meteohub,2013-03-08 13:27:00,
2013-03-08 07:32:00,53.6,49.8,28.51,East,90,13.0,16.0,87,0.00,,,0.00,meteohub,2013-03-08 13:32:00,
2013-03-08 07:37:00,53.8,49.6,28.52,SE,135,11.0,16.0,86,0.00,,,0.00,meteohub,2013-03-08 13:37:00,
2013-03-08 07:42:00,53.4,49.6,28.52,ESE,113,11.0,13.0,87,0.00,,,0.00,meteohub,2013-03-08 13:42:00,
2013-03-08 07:47:00,53.8,50.0,28.53,SE,135,10.0,13.0,87,0.00,,,0.00,meteohub,2013-03-08 13:47:00,
2013-03-08 07:52:00,53.8,50.0,28.52,SE,135,11.0,15.0,87,0.00,,,0.00,meteohub,2013-03-08 13:52:00,
2013-03-08 07:57:00,53.8,50.0,28.52,SE,135,14.0,15.0,87,0.00,,,0.00,meteohub,2013-03-08 13:57:00,
2013-03-08 08:02:00,54.0,50.2,28.52,SE,135,11.0,15.0,87,0.00,,,0.00,meteohub,2013-03-08 14:02:00,
2013-03-08 08:07:00,54.0,50.2,28.52,SE,135,13.0,15.0,87,0.00,,,0.00,meteohub,2013-03-08 14:07:00,
2013-03-08 08:12:00,54.1,50.4,28.53,East,90,8.0,15.0,87,0.00,,,0.00,meteohub,2013-03-08 14:12:00,
2013-03-08 08:17:00,54.1,50.4,28.53,East,90,11.0,15.0,87,0.00,,,0.00,meteohub,2013-03-08 14:17:00,
2013-03-08 08:22:00,54.5,50.7,28.53,East,90,10.0,15.0,87,0.00,,,0.00,meteohub,2013-03-08 14:22:00,
2013-03-08 08:27:00,54.5,50.7,28.53,East,90,13.0,15.0,87,0.00,,,0.00,meteohub,2013-03-08 14:27:00,
2013-03-08 08:32:00,54.9,51.1,28.53,SE,135,11.0,17.0,87,0.00,,,0.00,meteohub,2013-03-08 14:32:00,
2013-03-08 08:37:00,54.7,50.5,28.53,East,90,13.0,17.0,86,0.00,,,0.00,meteohub,2013-03-08 14:37:00,
2013-03-08 08:42:00,55.0,50.9,28.54,ESE,113,12.0,17.0,86,0.00,,,0.00,meteohub,2013-03-08 14:42:00,
2013-03-08 08:47:00,55.0,50.9,28.54,East,90,9.0,16.0,86,0.00,,,0.00,meteohub,2013-03-08 14:47:00,
2013-03-08 08:52:00,55.2,51.1,28.54,East,90,7.0,15.0,86,0.00,,,0.00,meteohub,2013-03-08 14:52:00,
2013-03-08 08:58:00,55.2,51.1,28.54,East,90,11.0,15.0,86,0.00,,,0.00,meteohub,2013-03-08 14:58:00,
2013-03-08 09:03:00,55.4,50.9,28.54,SE,135,11.0,15.0,85,0.00,,,0.00,meteohub,2013-03-08 15:03:00,
2013-03-08 09:08:00,55.6,51.4,28.54,SE,135,12.0,15.0,86,0.00,,,0.00,meteohub,2013-03-08 15:08:00,
2013-03-08 09:13:00,55.6,51.4,28.54,East,90,12.0,15.0,86,0.00,,,0.00,meteohub,2013-03-08 15:13:00,
2013-03-08 09:18:00,55.6,51.4,28.54,East,90,11.0,15.0,86,0.00,,,0.00,meteohub,2013-03-08 15:18:00,
2013-03-08 09:23:00,55.9,51.8,28.54,SE,135,14.0,16.0,86,0.00,,,0.00,meteohub,2013-03-08 15:23:00,
2013-03-08 09:28:00,55.9,51.8,28.54,East,90,11.0,16.0,86,0.00,,,0.00,meteohub,2013-03-08 15:28:00,
2013-03-08 09:33:00,56.1,52.0,28.54,SE,135,12.0,17.0,86,0.00,,,0.00,meteohub,2013-03-08 15:33:00,
2013-03-08 09:38:00,56.3,52.2,28.54,SE,135,15.0,17.0,86,0.00,,,0.00,meteohub,2013-03-08 15:38:00,
2013-03-08 09:43:00,56.7,52.5,28.54,East,90,11.0,17.0,86,0.00,,,0.00,meteohub,2013-03-08 15:43:00,
2013-03-08 09:48:00,56.7,52.5,28.54,SE,135,11.0,15.0,86,0.00,,,0.00,meteohub,2013-03-08 15:48:00,
2013-03-08 09:53:00,56.8,52.7,28.54,NE,45,8.0,16.0,86,0.00,,,0.00,meteohub,2013-03-08 15:53:00,
2013-03-08 09:58:00,56.8,53.1,28.53,East,90,15.0,16.0,87,0.00,,,0.00,meteohub,2013-03-08 15:58:00,
2013-03-08 10:03:00,57.0,53.4,28.53,SE,135,9.0,17.0,88,0.00,,,0.00,meteohub,2013-03-08 16:03:00,
2013-03-08 10:08:00,57.6,54.0,28.53,SE,135,11.0,17.0,88,0.00,,,0.00,meteohub,2013-03-08 16:08:00,
2013-03-08 10:13:00,57.7,54.1,28.53,East,90,13.0,20.0,88,0.00,,,0.00,meteohub,2013-03-08 16:13:00,
2013-03-08 10:18:00,57.9,54.3,28.53,East,90,15.0,20.0,88,0.00,,,0.00,meteohub,2013-03-08 16:18:00,
2013-03-08 10:23:00,57.9,54.3,28.53,East,90,14.0,20.0,88,0.00,,,0.00,meteohub,2013-03-08 16:23:00,
2013-03-08 10:28:00,57.7,54.1,28.53,East,90,15.0,18.0,88,0.00,,,0.00,meteohub,2013-03-08 16:28:00,
2013-03-08 10:33:00,57.6,54.0,28.53,East,90,11.0,18.0,88,0.00,,,0.00,meteohub,2013-03-08 16:33:00,
2013-03-08 10:38:00,57.6,54.0,28.53,SE,135,11.0,18.0,88,0.00,,,0.00,meteohub,2013-03-08 16:38:00,
2013-03-08 10:43:00,57.9,54.3,28.53,East,90,10.0,17.0,88,0.00,,,0.00,meteohub,2013-03-08 16:43:00,
2013-03-08 10:48:00,57.7,54.1,28.53,SE,135,12.0,17.0,88,0.00,,,0.00,meteohub,2013-03-08 16:48:00,
2013-03-08 10:53:00,57.6,54.3,28.52,SE,135,15.0,15.0,89,0.00,,,0.00,meteohub,2013-03-08 16:53:00,
2013-03-08 10:58:00,57.9,54.7,28.52,East,90,13.0,20.0,89,0.00,,,0.00,meteohub,2013-03-08 16:58:00,
2013-03-08 11:03:00,57.7,54.1,28.52,South,180,14.0,20.0,88,0.00,,,0.00,meteohub,2013-03-08 17:03:00,
2013-03-08 11:08:00,58.1,54.5,28.52,South,180,14.0,16.0,88,0.00,,,0.00,meteohub,2013-03-08 17:08:00,
2013-03-08 11:13:00,57.9,54.7,28.52,SE,135,11.0,16.0,89,0.00,,,0.00,meteohub,2013-03-08 17:13:00,
2013-03-08 11:19:00,58.3,55.0,28.52,East,90,12.0,16.0,89,0.00,,,0.00,meteohub,2013-03-08 17:19:00,
2013-03-08 11:24:00,58.8,55.2,28.51,SE,135,12.0,15.0,88,0.00,,,0.00,meteohub,2013-03-08 17:24:00,
2013-03-08 11:29:00,58.6,54.9,28.51,SE,135,15.0,15.0,87,0.00,,,0.00,meteohub,2013-03-08 17:29:00,
2013-03-08 11:34:00,58.8,55.0,28.51,East,90,17.0,18.0,87,0.00,,,0.00,meteohub,2013-03-08 17:34:00,
2013-03-08 11:39:00,58.5,54.7,28.51,East,90,14.0,18.0,87,0.00,,,0.00,meteohub,2013-03-08 17:39:00,
2013-03-08 11:44:00,58.8,55.2,28.51,East,90,15.0,17.0,88,0.00,,,0.00,meteohub,2013-03-08 17:44:00,
2013-03-08 11:49:00,59.0,55.4,28.51,East,90,15.0,17.0,88,0.00,,,0.00,meteohub,2013-03-08 17:49:00,
2013-03-08 11:54:00,58.8,55.2,28.51,East,90,13.0,17.0,88,0.00,,,0.00,meteohub,2013-03-08 17:54:00,
2013-03-08 11:59:00,58.8,55.2,28.51,SE,135,15.0,17.0,88,0.00,,,0.00,meteohub,2013-03-08 17:59:00,
2013-03-08 12:04:00,58.8,55.2,28.51,East,90,16.0,17.0,88,0.00,,,0.00,meteohub,2013-03-08 18:04:00,
2013-03-08 12:09:00,59.2,55.4,28.51,East,90,16.0,20.0,87,0.00,,,0.00,meteohub,2013-03-08 18:09:00,
2013-03-08 12:14:00,59.2,55.4,28.51,East,90,11.0,20.0,87,0.00,,,0.00,meteohub,2013-03-08 18:14:00,
2013-03-08 12:19:00,59.0,55.2,28.51,East,90,15.0,20.0,87,0.00,,,0.00,meteohub,2013-03-08 18:19:00,
2013-03-08 12:24:00,58.8,55.0,28.50,East,90,12.0,17.0,87,0.00,,,0.00,meteohub,2013-03-08 18:24:00,
2013-03-08 12:29:00,59.0,55.2,28.49,East,90,11.0,18.0,87,0.00,,,0.00,meteohub,2013-03-08 18:29:00,
2013-03-08 12:34:00,58.8,55.0,28.49,SE,135,11.0,18.0,87,0.00,,,0.00,meteohub,2013-03-08 18:34:00,
2013-03-08 12:39:00,59.2,55.4,28.49,East,90,14.0,18.0,87,0.00,,,0.00,meteohub,2013-03-08 18:39:00,
2013-03-08 12:44:00,59.0,55.2,28.48,East,90,15.0,18.0,87,0.00,,,0.00,meteohub,2013-03-08 18:44:00,
2013-03-08 12:49:00,58.8,55.0,28.48,East,90,9.0,16.0,87,0.00,,,0.00,meteohub,2013-03-08 18:49:00,
2013-03-08 12:54:00,58.8,55.0,28.48,SE,135,13.0,17.0,87,0.00,,,0.00,meteohub,2013-03-08 18:54:00,
2013-03-08 12:59:00,58.6,54.9,28.48,East,90,15.0,17.0,87,0.00,,,0.00,meteohub,2013-03-08 18:59:00,
2013-03-08 13:04:00,58.6,54.9,28.48,East,90,13.0,21.0,87,0.00,,,0.00,meteohub,2013-03-08 19:04:00,
2013-03-08 13:09:00,58.8,55.0,28.48,SE,135,17.0,21.0,87,0.00,,,0.00,meteohub,2013-03-08 19:09:00,
2013-03-08 13:14:00,58.6,54.9,28.48,East,90,14.0,21.0,87,0.00,,,0.00,meteohub,2013-03-08 19:14:00,
2013-03-08 13:19:00,58.6,54.9,28.48,SE,135,12.0,21.0,87,0.00,,,0.00,meteohub,2013-03-08 19:19:00,
2013-03-08 13:24:00,58.5,54.7,28.48,East,90,13.0,21.0,87,0.00,,,0.00,meteohub,2013-03-08 19:24:00,
2013-03-08 13:29:00,58.6,54.9,28.48,SE,135,18.0,20.0,87,0.00,,,0.00,meteohub,2013-03-08 19:29:00,
2013-03-08 13:34:00,58.5,54.7,28.47,East,90,11.0,20.0,87,0.00,,,0.00,meteohub,2013-03-08 19:34:00,
2013-03-08 13:39:00,59.0,55.2,28.47,SE,135,18.0,20.0,87,0.00,,,0.00,meteohub,2013-03-08 19:39:00,
2013-03-08 13:44:00,59.0,55.2,28.46,SE,135,13.0,20.0,87,0.00,,,0.00,meteohub,2013-03-08 19:44:00,
2013-03-08 13:49:00,59.2,55.4,28.46,SE,135,11.0,19.0,87,0.00,,,0.00,meteohub,2013-03-08 19:49:00,
2013-03-08 13:54:00,59.0,55.2,28.45,East,90,11.0,19.0,87,0.00,,,0.00,meteohub,2013-03-08 19:54:00,
2013-03-08 13:59:00,59.2,55.6,28.45,East,90,17.0,17.0,88,0.00,,,0.00,meteohub,2013-03-08 19:59:00,
2013-03-08 14:04:00,59.2,55.6,28.45,East,90,14.0,17.0,88,0.00,,,0.00,meteohub,2013-03-08 20:04:00,
2013-03-08 14:09:00,59.5,55.6,28.45,ESE,113,18.0,21.0,87,0.00,,,0.00,meteohub,2013-03-08 20:09:00,
2013-03-08 14:14:00,59.7,55.8,28.45,SE,135,19.0,21.0,87,0.00,,,0.00,meteohub,2013-03-08 20:14:00,
2013-03-08 14:19:00,59.7,55.8,28.44,SE,135,15.0,21.0,87,0.00,,,0.00,meteohub,2013-03-08 20:19:00,
2013-03-08 14:24:00,59.7,55.8,28.44,East,90,17.0,19.0,87,0.00,,,0.00,meteohub,2013-03-08 20:24:00,
2013-03-08 14:29:00,59.7,55.8,28.44,East,90,12.0,22.0,87,0.00,,,0.00,meteohub,2013-03-08 20:29:00,
2013-03-08 14:34:00,59.9,55.9,28.44,NE,45,13.0,22.0,87,0.00,,,0.00,meteohub,2013-03-08 20:34:00,
2013-03-08 14:39:00,59.9,55.9,28.43,East,90,18.0,22.0,87,0.00,,,0.00,meteohub,2013-03-08 20:39:00,
2013-03-08 14:44:00,59.9,55.9,28.43,SE,135,15.0,19.0,87,0.00,,,0.00,meteohub,2013-03-08 20:44:00,
2013-03-08 14:49:00,60.1,56.1,28.43,East,90,16.0,24.0,87,0.00,,,0.00,meteohub,2013-03-08 20:49:00,
2013-03-08 14:54:00,60.3,56.1,28.43,East,90,13.0,24.0,86,0.00,,,0.00,meteohub,2013-03-08 20:54:00,
2013-03-08 14:59:00,60.1,56.1,28.43,SE,135,10.0,24.0,87,0.00,,,0.00,meteohub,2013-03-08 20:59:00,
2013-03-08 15:04:00,60.3,56.1,28.43,East,90,11.0,19.0,86,0.00,,,0.00,meteohub,2013-03-08 21:04:00,
2013-03-08 15:09:00,60.1,55.9,28.43,East,90,11.0,23.0,86,0.00,,,0.00,meteohub,2013-03-08 21:09:00,
2013-03-08 15:14:00,60.6,56.5,28.43,East,90,16.0,23.0,86,0.00,,,0.00,meteohub,2013-03-08 21:14:00,
2013-03-08 15:19:00,60.3,56.1,28.43,South,180,17.0,23.0,86,0.00,,,0.00,meteohub,2013-03-08 21:19:00,
2013-03-08 15:24:00,60.6,56.5,28.43,SE,135,9.0,22.0,86,0.00,,,0.00,meteohub,2013-03-08 21:24:00,
2013-03-08 15:29:00,61.0,56.8,28.42,East,90,13.0,17.0,86,0.00,,,0.00,meteohub,2013-03-08 21:29:00,
2013-03-08 15:34:00,61.2,56.7,28.42,South,180,15.0,17.0,85,0.00,,,0.00,meteohub,2013-03-08 21:34:00,
2013-03-08 15:39:00,61.3,56.8,28.42,East,90,18.0,18.0,85,0.00,,,0.00,meteohub,2013-03-08 21:39:00,
2013-03-08 15:44:00,61.2,56.7,28.42,East,90,15.0,18.0,85,0.00,,,0.00,meteohub,2013-03-08 21:44:00,
2013-03-08 15:49:00,61.2,56.7,28.41,SE,135,11.0,19.0,85,0.00,,,0.00,meteohub,2013-03-08 21:49:00,
2013-03-08 15:54:00,61.3,56.8,28.41,East,90,11.0,22.0,85,0.00,,,0.00,meteohub,2013-03-08 21:54:00,
2013-03-08 15:59:00,61.3,56.8,28.41,NE,45,11.0,22.0,85,0.00,,,0.00,meteohub,2013-03-08 21:59:00,
2013-03-08 16:04:00,61.3,56.8,28.41,East,90,15.0,22.0,85,0.00,,,0.00,meteohub,2013-03-08 22:04:00,
2013-03-08 16:10:00,61.5,57.0,28.41,SE,135,19.0,21.0,85,0.00,,,0.00,meteohub,2013-03-08 22:10:00,
2013-03-08 16:15:00,61.5,57.0,28.41,East,90,14.0,23.0,85,0.00,,,0.00,meteohub,2013-03-08 22:15:00,
2013-03-08 16:20:00,62.1,57.6,28.40,East,90,19.0,23.0,85,0.00,,,0.00,meteohub,2013-03-08 22:20:00,
2013-03-08 16:25:00,62.1,57.6,28.40,East,90,15.0,23.0,85,0.00,,,0.00,meteohub,2013-03-08 22:25:00,
2013-03-08 16:30:00,62.1,57.6,28.40,East,90,17.0,23.0,85,0.00,,,0.00,meteohub,2013-03-08 22:30:00,
2013-03-08 16:35:00,62.4,57.6,28.40,East,90,15.0,23.0,84,0.00,,,0.00,meteohub,2013-03-08 22:35:00,
2013-03-08 16:40:00,62.2,57.4,28.40,SE,135,17.0,20.0,84,0.00,,,0.00,meteohub,2013-03-08 22:40:00,
2013-03-08 16:45:00,62.6,57.7,28.40,East,90,16.0,22.0,84,0.00,,,0.00,meteohub,2013-03-08 22:45:00,
2013-03-08 16:50:00,62.2,57.4,28.40,East,90,15.0,22.0,84,0.00,,,0.00,meteohub,2013-03-08 22:50:00,
2013-03-08 16:55:00,62.1,57.2,28.40,SE,135,11.0,22.0,84,0.00,,,0.00,meteohub,2013-03-08 22:55:00,
2013-03-08 17:00:00,61.7,56.8,28.40,East,90,13.0,21.0,84,0.00,,,0.00,meteohub,2013-03-08 23:00:00,
2013-03-08 17:05:00,61.5,57.0,28.39,SE,135,19.0,19.0,85,0.00,,,0.00,meteohub,2013-03-08 23:05:00,
2013-03-08 17:10:00,61.5,57.0,28.39,ESE,113,15.0,19.0,85,0.00,,,0.00,meteohub,2013-03-08 23:10:00,
2013-03-08 17:15:00,61.5,57.0,28.39,SE,135,14.0,21.0,85,0.00,,,0.00,meteohub,2013-03-08 23:15:00,
2013-03-08 17:20:00,61.5,57.4,28.39,East,90,14.0,21.0,86,0.00,,,0.00,meteohub,2013-03-08 23:20:00,
2013-03-08 17:25:00,61.3,57.2,28.40,SE,135,13.0,21.0,86,0.00,,,0.00,meteohub,2013-03-08 23:25:00,
2013-03-08 17:30:00,61.5,57.4,28.40,NE,45,9.0,18.0,86,0.00,,,0.00,meteohub,2013-03-08 23:30:00,
2013-03-08 17:35:00,61.5,57.4,28.40,East,90,12.0,15.0,86,0.00,,,0.00,meteohub,2013-03-08 23:35:00,
2013-03-08 17:40:00,61.5,57.4,28.40,SE,135,12.0,15.0,86,0.00,,,0.00,meteohub,2013-03-08 23:40:00,
2013-03-08 17:45:00,61.5,57.4,28.40,East,90,14.0,15.0,86,0.00,,,0.00,meteohub,2013-03-08 23:45:00,
2013-03-08 17:50:00,62.1,57.7,28.39,East,90,15.0,15.0,86,0.00,,,0.00,meteohub,2013-03-08 23:50:00,
2013-03-08 17:55:00,62.1,57.6,28.39,East,90,15.0,20.0,85,0.00,,,0.00,meteohub,2013-03-08 23:55:00,
2013-03-08 18:00:00,62.2,57.4,28.39,East,90,12.0,20.0,84,0.00,,,0.00,meteohub,2013-03-09 00:00:00,
2013-03-08 18:05:00,62.2,57.4,28.40,East,90,15.0,20.0,84,0.00,,,0.00,meteohub,2013-03-09 00:05:00,
2013-03-08 18:10:00,62.2,57.4,28.39,East,90,18.0,18.0,84,0.00,,,0.00,meteohub,2013-03-09 00:10:00,
2013-03-08 18:15:00,62.4,57.6,28.39,East,90,12.0,18.0,84,0.00,,,0.00,meteohub,2013-03-09 00:15:00,
2013-03-08 18:20:00,62.2,57.4,28.39,East,90,12.0,20.0,84,0.00,,,0.00,meteohub,2013-03-09 00:20:00,
2013-03-08 18:25:00,62.4,57.6,28.39,East,90,13.0,20.0,84,0.00,,,0.00,meteohub,2013-03-09 00:25:00,
2013-03-08 18:30:00,61.9,57.0,28.39,East,90,15.0,20.0,84,0.00,,,0.00,meteohub,2013-03-09 00:30:00,
2013-03-08 18:35:00,62.2,57.7,28.39,East,90,16.0,20.0,85,0.00,,,0.00,meteohub,2013-03-09 00:35:00,
2013-03-08 18:40:00,61.7,57.2,28.40,NE,45,14.0,20.0,85,0.00,,,0.00,meteohub,2013-03-09 00:40:00,
2013-03-08 18:45:00,61.7,57.2,28.40,East,90,15.0,18.0,85,0.00,,,0.00,meteohub,2013-03-09 00:45:00,
2013-03-08 18:50:00,61.5,57.0,28.40,East,90,13.0,17.0,85,0.00,,,0.00,meteohub,2013-03-09 00:50:00,
2013-03-08 18:55:00,61.5,57.4,28.40,NE,45,13.0,15.0,86,0.00,,,0.00,meteohub,2013-03-09 00:55:00,
2013-03-08 19:00:00,61.3,57.2,28.40,East,90,11.0,20.0,86,0.00,,,0.00,meteohub,2013-03-09 01:00:00,
2013-03-08 19:05:00,61.5,57.4,28.40,SE,135,11.0,20.0,86,0.00,,,0.00,meteohub,2013-03-09 01:05:00,
2013-03-08 19:10:00,61.5,57.4,28.39,East,90,12.0,20.0,86,0.00,,,0.00,meteohub,2013-03-09 01:10:00,
2013-03-08 19:15:00,61.5,57.4,28.39,East,90,15.0,18.0,86,0.00,,,0.00,meteohub,2013-03-09 01:15:00,
2013-03-08 19:20:00,61.3,57.4,28.39,SE,135,15.0,18.0,87,0.00,,,0.00,meteohub,2013-03-09 01:20:00,
2013-03-08 19:25:00,61.2,57.2,28.38,East,90,13.0,21.0,87,0.00,,,0.00,meteohub,2013-03-09 01:25:00,
2013-03-08 19:30:00,61.2,57.2,28.38,East,90,17.0,21.0,87,0.00,,,0.00,meteohub,2013-03-09 01:30:00,
2013-03-08 19:36:00,61.2,57.2,28.38,ESE,113,18.0,21.0,87,0.00,,,0.00,meteohub,2013-03-09 01:36:00,
2013-03-08 19:41:00,61.0,57.0,28.38,SE,135,13.0,21.0,87,0.00,,,0.00,meteohub,2013-03-09 01:41:00,
2013-03-08 19:46:00,61.2,57.2,28.39,East,90,19.0,22.0,87,0.00,,,0.00,meteohub,2013-03-09 01:46:00,
2013-03-08 19:51:00,61.0,57.0,28.39,SE,135,21.0,22.0,87,0.00,,,0.00,meteohub,2013-03-09 01:51:00,
2013-03-08 19:56:00,60.8,57.2,28.38,SE,135,15.0,21.0,88,0.00,,,0.00,meteohub,2013-03-09 01:56:00,
2013-03-08 20:01:00,61.0,57.4,28.38,East,90,13.0,21.0,88,0.00,,,0.00,meteohub,2013-03-09 02:01:00,
2013-03-08 20:06:00,60.6,57.0,28.38,East,90,15.0,21.0,88,0.00,,,0.00,meteohub,2013-03-09 02:06:00,
2013-03-08 20:11:00,61.0,57.4,28.38,ESE,113,15.0,19.0,88,0.00,,,0.00,meteohub,2013-03-09 02:11:00,
2013-03-08 20:16:00,60.8,57.2,28.38,NE,45,17.0,19.0,88,0.00,,,0.00,meteohub,2013-03-09 02:16:00,
2013-03-08 20:21:00,60.8,57.2,28.38,SE,135,17.0,17.0,88,0.00,,,0.00,meteohub,2013-03-09 02:21:00,
2013-03-08 20:26:00,60.6,57.4,28.38,East,90,20.0,22.0,89,0.00,,,0.00,meteohub,2013-03-09 02:26:00,
2013-03-08 20:31:00,60.8,57.6,28.38,ESE,113,21.0,22.0,89,0.00,,,0.00,meteohub,2013-03-09 02:31:00,
2013-03-08 20:36:00,60.6,57.4,28.37,East,90,18.0,23.0,89,0.00,,,0.00,meteohub,2013-03-09 02:36:00,
2013-03-08 20:41:00,60.6,57.4,28.37,East,90,21.0,23.0,89,0.00,,,0.00,meteohub,2013-03-09 02:41:00,
2013-03-08 20:46:00,60.6,57.4,28.36,East,90,17.0,23.0,89,0.00,,,0.00,meteohub,2013-03-09 02:46:00,
2013-03-08 20:51:00,60.8,57.6,28.36,East,90,17.0,21.0,89,0.00,,,0.00,meteohub,2013-03-09 02:51:00,
2013-03-08 20:56:00,60.6,57.4,28.35,East,90,11.0,23.0,89,0.00,,,0.00,meteohub,2013-03-09 02:56:00,
2013-03-08 21:01:00,60.8,57.6,28.35,East,90,21.0,23.0,89,0.00,,,0.00,meteohub,2013-03-09 03:01:00,
2013-03-08 21:06:00,60.8,57.6,28.35,SE,135,20.0,23.0,89,0.00,,,0.00,meteohub,2013-03-09 03:06:00,
2013-03-08 21:11:00,60.8,57.6,28.34,SE,135,19.0,21.0,89,0.00,,,0.00,meteohub,2013-03-09 03:11:00,
2013-03-08 21:16:00,60.8,57.6,28.35,East,90,16.0,21.0,89,0.00,,,0.00,meteohub,2013-03-09 03:16:00,
2013-03-08 21:21:00,60.8,57.9,28.35,East,90,16.0,21.0,90,0.00,,,0.00,meteohub,2013-03-09 03:21:00,
2013-03-08 21:26:00,60.6,57.7,28.34,SE,135,15.0,21.0,90,0.00,,,0.00,meteohub,2013-03-09 03:26:00,
2013-03-08 21:31:00,60.6,57.7,28.34,East,90,11.0,19.0,90,0.00,,,0.00,meteohub,2013-03-09 03:31:00,
2013-03-08 21:36:00,60.4,57.6,28.34,SE,135,17.0,19.0,90,0.00,,,0.00,meteohub,2013-03-09 03:36:00,
2013-03-08 21:41:00,60.6,57.7,28.35,East,90,17.0,24.0,90,0.00,,,0.00,meteohub,2013-03-09 03:41:00,
2013-03-08 21:46:00,60.8,57.9,28.34,East,90,15.0,24.0,90,0.00,,,0.00,meteohub,2013-03-09 03:46:00,
2013-03-08 21:51:00,60.6,57.7,28.35,SE,135,17.0,21.0,90,0.00,,,0.00,meteohub,2013-03-09 03:51:00,
2013-03-08 21:56:00,61.0,58.1,28.35,East,90,22.0,22.0,90,0.00,,,0.00,meteohub,2013-03-09 03:56:00,
2013-03-08 22:01:00,61.2,58.3,28.35,SE,135,16.0,22.0,90,0.00,,,0.00,meteohub,2013-03-09 04:01:00,
2013-03-08 22:06:00,61.0,58.1,28.35,East,90,15.0,22.0,90,0.00,,,0.00,meteohub,2013-03-09 04:06:00,
2013-03-08 22:11:00,61.0,58.1,28.35,SE,135,11.0,22.0,90,0.00,,,0.00,meteohub,2013-03-09 04:11:00,
2013-03-08 22:16:00,61.2,58.3,28.36,SE,135,15.0,18.0,90,0.00,,,0.00,meteohub,2013-03-09 04:16:00,
2013-03-08 22:22:00,61.3,58.5,28.36,SE,135,15.0,18.0,90,0.00,,,0.00,meteohub,2013-03-09 04:22:00,
2013-03-08 22:27:00,61.2,58.3,28.36,SE,135,16.0,17.0,90,0.00,,,0.00,meteohub,2013-03-09 04:27:00,
2013-03-08 22:32:00,61.2,58.3,28.36,East,90,17.0,18.0,90,0.00,,,0.00,meteohub,2013-03-09 04:32:00,
2013-03-08 22:37:00,61.2,58.5,28.36,East,90,14.0,18.0,91,0.00,,,0.00,meteohub,2013-03-09 04:37:00,
2013-03-08 22:42:00,61.5,58.8,28.37,East,90,13.0,18.0,91,0.00,,,0.00,meteohub,2013-03-09 04:42:00,
2013-03-08 22:47:00,61.2,58.5,28.37,SE,135,17.0,20.0,91,0.00,,,0.00,meteohub,2013-03-09 04:47:00,
2013-03-08 22:52:00,61.2,58.5,28.37,SE,135,16.0,20.0,91,0.00,,,0.00,meteohub,2013-03-09 04:52:00,
2013-03-08 22:57:00,61.2,58.5,28.37,East,90,10.0,20.0,91,0.00,,,0.00,meteohub,2013-03-09 04:57:00,
2013-03-08 23:00:00,61.2,58.5,28.37,ESE,113,16.0,20.0,91,0.00,,,0.00,meteohub,2013-03-09 05:00:00,
2013-03-08 23:05:00,61.3,58.6,28.36,SE,135,13.0,19.0,91,0.00,,,0.00,meteohub,2013-03-09 05:05:00,
2013-03-08 23:10:00,61.5,58.8,28.36,ESE,113,15.0,19.0,91,0.00,,,0.00,meteohub,2013-03-09 05:10:00,
2013-03-08 23:15:00,61.5,58.8,28.36,SE,135,7.0,17.0,91,0.00,,,0.00,meteohub,2013-03-09 05:15:00,
2013-03-08 23:20:00,61.5,58.8,28.36,SE,135,11.0,17.0,91,0.00,,,0.00,meteohub,2013-03-09 05:20:00,
2013-03-08 23:25:00,61.3,58.6,28.35,SE,135,11.0,17.0,91,0.00,,,0.00,meteohub,2013-03-09 05:25:00,
2013-03-08 23:30:00,61.5,58.8,28.35,NNE,23,11.0,17.0,91,0.00,,,0.00,meteohub,2013-03-09 05:30:00,
2013-03-08 23:35:00,61.5,58.8,28.35,East,90,15.0,17.0,91,0.00,,,0.00,meteohub,2013-03-09 05:35:00,
2013-03-08 23:40:00,61.3,58.6,28.34,SE,135,11.0,15.0,91,0.00,,,0.00,meteohub,2013-03-09 05:40:00,
2013-03-08 23:45:00,61.7,59.0,28.34,SE,135,13.0,15.0,91,0.00,,,0.00,meteohub,2013-03-09 05:45:00,
2013-03-08 23:50:00,61.7,59.0,28.34,SE,135,14.0,15.0,91,0.00,,,0.00,meteohub,2013-03-09 05:50:00,
2013-03-08 23:55:00,61.7,59.0,28.34,East,90,10.0,14.0,91,0.00,,,0.00,meteohub,2013-03-09 05:55:00,